Carrier Princess — CZ3582 — position and weather

sailwx.info

Track history (hours):
 
Tides and Currents Weather Stations Pressure Air Temp Water Temp Dewpoint Dewpoint Depression Visibility Wind Speed Wind Dir Waves Ship Positions

Carrier Princess

Last reported at 2015-May-05 03:33 UTC. Time now 2015-May-05 04:12 UTC.
Position N 48°48' W 123°21'.

Length 112 m; draft 3 m.

Type: Cargo ship. MMSI: 316003656.

Date/timePositionNaut miles runAvg speedWind from/ knotsBaromVisibWave heightAir tempDewpointWater temp
2015-May-05 03:33N 48°48' W 123°21'7 7.0
2015-May-05 02:33N 48°41' W 123°24'0 0.0
2015-May-05 01:33N 48°41' W 123°24'6 5.8
2015-May-05 00:34N 48°47' W 123°21'1212.5
2015-May-04 23:34N 48°59' W 123°19'1010.2
2015-May-04 22:34N 49°07' W 123°08'4 4.3
2015-May-04 21:33N 49°09' W 123°02'0 0.0
2015-May-04 20:34N 49°09' W 123°02'0 0.1
2015-May-04 19:34N 49°09' W 123°02'0 0.0
2015-May-04 18:34N 49°09' W 123°02'0 0.0
2015-May-04 17:34N 49°09' W 123°02'0 0.0
2015-May-04 16:34N 49°09' W 123°02'0 0.0
2015-May-04 15:33N 49°09' W 123°02'0 0.0
2015-May-04 14:34N 49°09' W 123°02'0 0.0
2015-May-04 13:34N 49°09' W 123°02'0 0.0
2015-May-04 12:34N 49°09' W 123°02'0 0.0
2015-May-04 11:34N 49°09' W 123°02'0 0.0
2015-May-04 10:34N 49°09' W 123°02'0 0.0
2015-May-04 09:33N 49°09' W 123°02'0 0.0
2015-May-04 08:33N 49°09' W 123°02'0 0.0
2015-May-04 07:34N 49°09' W 123°02'0 0.0
2015-May-04 06:34N 49°09' W 123°02'0 0.0
2015-May-04 05:34N 49°09' W 123°02'0 0.0
2015-May-04 04:34N 49°09' W 123°02'0 0.0
2015-May-04 03:33N 49°09' W 123°02'0 0.0
2015-May-04 02:34N 49°09' W 123°02'0 0.0
2015-May-04 01:34N 49°09' W 123°02'0 0.0
2015-May-04 00:34N 49°09' W 123°02'0 0.0
2015-May-03 23:34N 49°09' W 123°02'0 0.0
2015-May-03 22:34N 49°09' W 123°02'0 0.0
2015-May-03 21:33N 49°09' W 123°02'0 0.0
2015-May-03 20:33N 49°09' W 123°02'0 0.0
2015-May-03 19:34N 49°09' W 123°02'0 0.0
2015-May-03 18:34N 49°09' W 123°02'0 0.0
2015-May-03 17:34N 49°09' W 123°02'0 0.0
2015-May-03 16:34N 49°09' W 123°02'0 0.0
2015-May-03 15:34N 49°09' W 123°02'1 1.5
2015-May-03 14:34N 49°08' W 123°04'10 9.8
2015-May-03 13:34N 49°06' W 123°19'1111.2
2015-May-03 12:34N 48°55' W 123°18'1111.0
2015-May-03 11:33N 48°44' W 123°23'3 3.2
2015-May-03 10:33N 48°41' W 123°24'1 1.1
2015-May-03 09:33N 48°42' W 123°23'1111.0
2015-May-03 08:33N 48°52' W 123°18'1413.5
2015-May-03 07:33N 49°06' W 123°19'1211.6
2015-May-03 06:33N 49°09' W 123°02'0 0.0
2015-May-03 05:33N 49°09' W 123°02'0 0.1
2015-May-03 04:33N 49°09' W 123°02'0 0.0
2015-May-03 03:33N 49°09' W 123°02'0 0.0
2015-May-03 02:33N 49°09' W 123°02'0 0.0
2015-May-03 01:33N 49°09' W 123°02'0 0.0
2015-May-03 00:33N 49°09' W 123°02'0 0.0
2015-May-02 23:33N 49°09' W 123°02'0 0.0
2015-May-02 22:33N 49°09' W 123°02'0 0.0
2015-May-02 21:33N 49°09' W 123°02'0 0.0
2015-May-02 20:33N 49°09' W 123°02'0 0.0
2015-May-02 19:33N 49°09' W 123°02'0 0.0
2015-May-02 18:33N 49°09' W 123°02'0 0.0
2015-May-02 17:33N 49°09' W 123°02'0 0.0
2015-May-02 16:33N 49°09' W 123°02'0 0.1
2015-May-02 15:33N 49°09' W 123°02'5 5.3
2015-May-02 14:33N 49°07' W 123°10'7 6.7
2015-May-02 13:34N 49°02' W 123°16'1111.3
2015-May-02 12:33N 48°51' W 123°21'10 9.6
2015-May-02 11:34N 48°41' W 123°24'0 0.0
2015-May-02 10:33N 48°41' W 123°24'9 9.5
2015-May-02 09:33N 48°51' W 123°21'1413.5
2015-May-02 08:33N 49°04' W 123°24'1313.5
2015-May-02 07:34N 49°07' W 123°04'2 2.0
2015-May-02 06:33N 49°09' W 123°02'4 4.3
2015-May-02 05:33N 49°06' W 123°08'8 8.3
2015-May-02 04:33N 49°02' W 123°18'1212.2
2015-May-02 03:33N 48°50' W 123°20'9 8.9
2015-May-02 02:33N 48°41' W 123°24'0 0.0
2015-May-02 01:33N 48°41' W 123°24'9 8.8
2015-May-02 00:33N 48°50' W 123°21'1413.7
2015-May-01 23:34N 49°03' W 123°19'1212.1
2015-May-01 22:34N 49°09' W 123°03'0 0.3
2015-May-01 21:34N 49°09' W 123°02'0 0.0
2015-May-01 20:34N 49°09' W 123°02'0 0.0
2015-May-01 19:34N 49°09' W 123°02'0 0.0
2015-May-01 18:34N 49°09' W 123°02'0 0.0
2015-May-01 17:34N 49°09' W 123°02'0 0.0
2015-May-01 16:33N 49°09' W 123°02'0 0.0
2015-May-01 15:34N 49°09' W 123°02'5 4.9
2015-May-01 14:34N 49°06' W 123°09'7 7.4
2015-May-01 13:34N 49°03' W 123°19'1312.6
2015-May-01 12:34N 48°50' W 123°21'9 9.4
2015-May-01 11:33N 48°41' W 123°24'0 0.0
2015-May-01 10:33N 48°41' W 123°24'9 8.8
2015-May-01 09:33N 48°50' W 123°21'1313.5
2015-May-01 08:33N 49°03' W 123°19'1212.3
2015-May-01 07:33N 49°09' W 123°03'0 0.4
2015-May-01 06:34N 49°09' W 123°02'5 4.6
2015-May-01 05:33N 49°07' W 123°08'8 7.9
2015-May-01 04:33N 49°01' W 123°17'1313.4
2015-May-01 03:33N 48°48' W 123°20'7 7.2
2015-May-01 02:33N 48°41' W 123°24'0 0.0
2015-May-01 01:33N 48°41' W 123°24'9 9.0
2015-May-01 00:33N 48°50' W 123°21'1414.4
2015-Apr-30 23:33N 49°04' W 123°20'1212.2
2015-Apr-30 22:34N 49°09' W 123°02'0 0.1
2015-Apr-30 21:33N 49°09' W 123°02'0 0.0
2015-Apr-30 20:33N 49°09' W 123°02'0 0.0
2015-Apr-30 19:33N 49°09' W 123°02'0 0.0
2015-Apr-30 18:33N 49°09' W 123°02'0 0.0
2015-Apr-30 17:33N 49°09' W 123°02'0 0.0
2015-Apr-30 16:33N 49°09' W 123°02'0 0.0
2015-Apr-30 15:33N 49°09' W 123°02'4 3.6
2015-Apr-30 14:33N 49°07' W 123°07'9 8.8
2015-Apr-30 13:33N 49°05' W 123°20'1312.9
2015-Apr-30 12:33N 48°52' W 123°21'1110.5
2015-Apr-30 11:34N 48°41' W 123°24'0 0.0
2015-Apr-30 10:34N 48°41' W 123°24'8 8.3
2015-Apr-30 09:33N 48°49' W 123°21'1212.5
2015-Apr-30 08:33N 49°02' W 123°20'1010.0
2015-Apr-30 07:34N 49°07' W 123°07'4 3.6
2015-Apr-30 06:34N 49°09' W 123°02'4 4.3
2015-Apr-30 05:33N 49°06' W 123°08'8 8.1
2015-Apr-30 04:33N 49°02' W 123°18'1212.5
2015-Apr-30 03:34N 48°49' W 123°20'9 8.4
2015-Apr-30 02:32N 48°41' W 123°24'0 0.0
2015-Apr-30 01:33N 48°41' W 123°24'9 8.8
2015-Apr-30 00:34N 48°50' W 123°21'1414.3
2015-Apr-29 23:33N 49°04' W 123°20'1212.3
2015-Apr-29 22:33N 49°09' W 123°02'0 0.1
2015-Apr-29 21:33N 49°09' W 123°02'0 0.0
2015-Apr-29 20:33N 49°09' W 123°02'0 0.0
2015-Apr-29 19:33N 49°09' W 123°02'0 0.0
2015-Apr-29 18:33N 49°09' W 123°02'0 0.0
2015-Apr-29 17:33N 49°09' W 123°02'0 0.0
2015-Apr-29 16:33N 49°09' W 123°02'0 0.0
2015-Apr-29 15:33N 49°09' W 123°02'5 5.0
2015-Apr-29 14:34N 49°07' W 123°09'8 8.1
2015-Apr-29 13:34N 49°02' W 123°19'1111.2
2015-Apr-29 12:33N 48°51' W 123°21'10 9.6
2015-Apr-29 11:33N 48°41' W 123°24'0 0.0
2015-Apr-29 10:34N 48°41' W 123°24'8 8.0
2015-Apr-29 09:33N 48°49' W 123°21'1212.4
2015-Apr-29 08:33N 49°01' W 123°19'1010.4
2015-Apr-29 07:34N 49°07' W 123°06'3 2.9
2015-Apr-29 06:33N 49°09' W 123°02'4 4.3
2015-Apr-29 05:33N 49°06' W 123°08'8 8.0
2015-Apr-29 04:33N 49°02' W 123°18'1313.1
2015-Apr-29 03:33N 48°49' W 123°20'8 7.1
2015-Apr-29 02:25N 48°41' W 123°24'0 0.0
2015-Apr-29 01:33N 48°41' W 123°24'9 8.7
2015-Apr-29 00:33N 48°50' W 123°21'1312.7
2015-Apr-28 23:34N 49°02' W 123°19'1211.9
2015-Apr-28 22:34N 49°08' W 123°04'1 1.0
2015-Apr-28 21:33N 49°09' W 123°02'0 0.0
2015-Apr-28 20:33N 49°09' W 123°02'0 0.0
2015-Apr-28 19:33N 49°09' W 123°02'0 0.0
2015-Apr-28 18:33N 49°09' W 123°02'0 0.0
2015-Apr-28 17:33N 49°09' W 123°02'0 0.0
2015-Apr-28 16:33N 49°09' W 123°02'0 0.0
2015-Apr-28 15:33N 49°09' W 123°02'6 6.0
2015-Apr-28 14:33N 49°07' W 123°11'7 7.2
2015-Apr-28 13:34N 49°01' W 123°17'1111.2
2015-Apr-28 12:33N 48°50' W 123°21'9 9.0
2015-Apr-28 11:33N 48°41' W 123°24'0 0.0
2015-Apr-28 10:33N 48°41' W 123°24'8 7.9
2015-Apr-28 09:33N 48°49' W 123°21'1313.0
2015-Apr-28 08:34N 49°02' W 123°19'1010.1
2015-Apr-28 07:33N 49°07' W 123°05'3 2.8
2015-Apr-28 06:33N 49°09' W 123°02'4 3.9
2015-Apr-28 05:33N 49°07' W 123°07'9 8.8
2015-Apr-28 04:34N 49°01' W 123°17'1414.0
2015-Apr-28 03:33N 48°47' W 123°21'6 6.2
2015-Apr-28 02:33N 48°41' W 123°24'0 0.0
2015-Apr-28 01:33N 48°41' W 123°24'9 9.1
2015-Apr-28 00:33N 48°50' W 123°21'1212.2
2015-Apr-27 23:34N 49°02' W 123°19'1211.6
2015-Apr-27 22:33N 49°08' W 123°04'1 1.2
2015-Apr-27 21:33N 49°09' W 123°02'0 0.1
2015-Apr-27 20:33N 49°09' W 123°02'0 0.0
2015-Apr-27 19:33N 49°09' W 123°02'0 0.0
2015-Apr-27 18:33N 49°09' W 123°02'0 0.0
2015-Apr-27 17:33N 49°09' W 123°02'0 0.0
2015-Apr-27 16:33N 49°09' W 123°02'0 0.0
2015-Apr-27 15:33N 49°09' W 123°02'0 0.0
2015-Apr-27 14:33N 49°09' W 123°02'0 0.0
2015-Apr-27 13:33N 49°09' W 123°02'0 0.0
2015-Apr-27 12:33N 49°09' W 123°02'0 0.0
2015-Apr-27 11:33N 49°09' W 123°02'0 0.0
2015-Apr-27 10:33N 49°09' W 123°02'0 0.0
2015-Apr-27 09:33N 49°09' W 123°02'0 0.0
2015-Apr-27 08:33N 49°09' W 123°02'0 0.0
2015-Apr-27 07:33N 49°09' W 123°02'0 0.0
2015-Apr-27 06:33N 49°09' W 123°02'0 0.0
2015-Apr-27 05:33N 49°09' W 123°02'0 0.0
2015-Apr-27 04:33N 49°09' W 123°02'0 0.0
2015-Apr-27 03:33N 49°09' W 123°02'0 0.0
2015-Apr-27 02:33N 49°09' W 123°02'0 0.0
2015-Apr-27 01:33N 49°09' W 123°02'0 0.0
2015-Apr-27 00:33N 49°09' W 123°02'0 0.0
2015-Apr-26 23:33N 49°09' W 123°02'0 0.0
2015-Apr-26 22:33N 49°09' W 123°02'0 0.0
2015-Apr-26 21:33N 49°09' W 123°02'0 0.0
2015-Apr-26 20:33N 49°09' W 123°02'0 0.0
2015-Apr-26 19:33N 49°09' W 123°02'0 0.0
2015-Apr-26 18:33N 49°09' W 123°02'0 0.0
2015-Apr-26 17:33N 49°09' W 123°02'0 0.0
2015-Apr-26 16:33N 49°09' W 123°02'0 0.0
2015-Apr-26 15:33N 49°09' W 123°02'3 2.8
2015-Apr-26 14:33N 49°07' W 123°05'1010.0
2015-Apr-26 13:33N 49°03' W 123°20'1211.7
2015-Apr-26 12:33N 48°52' W 123°20'1010.5
2015-Apr-26 11:34N 48°41' W 123°24'0 0.2
2015-Apr-26 10:33N 48°41' W 123°24'2 1.9
2015-Apr-26 09:33N 48°42' W 123°22'1111.1
2015-Apr-26 08:34N 48°53' W 123°18'1313.3
2015-Apr-26 07:33N 49°06' W 123°19'1111.1
2015-Apr-26 06:33N 49°09' W 123°02'0 0.1
2015-Apr-26 05:33N 49°09' W 123°02'0 0.0
2015-Apr-26 04:33N 49°09' W 123°02'0 0.0
2015-Apr-26 03:33N 49°09' W 123°02'0 0.0
2015-Apr-26 02:33N 49°09' W 123°02'0 0.0
2015-Apr-26 01:33N 49°09' W 123°02'0 0.0
2015-Apr-26 00:33N 49°09' W 123°02'0 0.0
2015-Apr-25 23:33N 49°09' W 123°02'0 0.0
2015-Apr-25 22:33N 49°09' W 123°02'0 0.0
2015-Apr-25 21:33N 49°09' W 123°02'0 0.0
2015-Apr-25 20:33N 49°09' W 123°02'0 0.0
2015-Apr-25 19:33N 49°09' W 123°02'0 0.0
2015-Apr-25 18:33N 49°09' W 123°02'0 0.0
2015-Apr-25 17:33N 49°09' W 123°02'0 0.0
2015-Apr-25 16:33N 49°09' W 123°02'0 0.0
2015-Apr-25 15:33N 49°09' W 123°02'6 6.0
2015-Apr-25 14:33N 49°07' W 123°11'8 8.4
2015-Apr-25 13:33N 49°01' W 123°19'1110.7
2015-Apr-25 12:33N 48°50' W 123°20'9 9.0
2015-Apr-25 11:33N 48°41' W 123°24'0 0.0
2015-Apr-25 10:33N 48°41' W 123°24'9 8.5
2015-Apr-25 09:33N 48°49' W 123°21'1313.3
2015-Apr-25 08:34N 49°03' W 123°22'1312.7
2015-Apr-25 07:33N 49°08' W 123°04'2 1.6
2015-Apr-25 06:33N 49°09' W 123°02'3 3.1
2015-Apr-25 05:33N 49°07' W 123°06'10 9.7
2015-Apr-25 04:33N 49°01' W 123°18'  
Track history (hours):
 
Tides and Currents Weather Stations Pressure Air Temp Water Temp Dewpoint Dewpoint Depression Visibility Wind Speed Wind Dir Waves Ship Positions

Carrier Princess

Last reported at 2015-May-05 03:33 UTC. Time now 2015-May-05 04:12 UTC.
Position N 48°48' W 123°21'.

Length 112 m; draft 3 m.

Type: Cargo ship. MMSI: 316003656.

Date/timePositionNaut miles runAvg speedWind from/ knotsBaromVisibWave heightAir tempDewpointWater temp
2015-May-05 03:33N 48°48' W 123°21'7 7.0
2015-May-05 02:33N 48°41' W 123°24'0 0.0
2015-May-05 01:33N 48°41' W 123°24'6 5.8
2015-May-05 00:34N 48°47' W 123°21'1212.5
2015-May-04 23:34N 48°59' W 123°19'1010.2
2015-May-04 22:34N 49°07' W 123°08'4 4.3
2015-May-04 21:33N 49°09' W 123°02'0 0.0
2015-May-04 20:34N 49°09' W 123°02'0 0.1
2015-May-04 19:34N 49°09' W 123°02'0 0.0
2015-May-04 18:34N 49°09' W 123°02'0 0.0
2015-May-04 17:34N 49°09' W 123°02'0 0.0
2015-May-04 16:34N 49°09' W 123°02'0 0.0
2015-May-04 15:33N 49°09' W 123°02'0 0.0
2015-May-04 14:34N 49°09' W 123°02'0 0.0
2015-May-04 13:34N 49°09' W 123°02'0 0.0
2015-May-04 12:34N 49°09' W 123°02'0 0.0
2015-May-04 11:34N 49°09' W 123°02'0 0.0
2015-May-04 10:34N 49°09' W 123°02'0 0.0
2015-May-04 09:33N 49°09' W 123°02'0 0.0
2015-May-04 08:33N 49°09' W 123°02'0 0.0
2015-May-04 07:34N 49°09' W 123°02'0 0.0
2015-May-04 06:34N 49°09' W 123°02'0 0.0
2015-May-04 05:34N 49°09' W 123°02'0 0.0
2015-May-04 04:34N 49°09' W 123°02'0 0.0
2015-May-04 03:33N 49°09' W 123°02'0 0.0
2015-May-04 02:34N 49°09' W 123°02'0 0.0
2015-May-04 01:34N 49°09' W 123°02'0 0.0
2015-May-04 00:34N 49°09' W 123°02'0 0.0
2015-May-03 23:34N 49°09' W 123°02'0 0.0
2015-May-03 22:34N 49°09' W 123°02'0 0.0
2015-May-03 21:33N 49°09' W 123°02'0 0.0
2015-May-03 20:33N 49°09' W 123°02'0 0.0
2015-May-03 19:34N 49°09' W 123°02'0 0.0
2015-May-03 18:34N 49°09' W 123°02'0 0.0
2015-May-03 17:34N 49°09' W 123°02'0 0.0
2015-May-03 16:34N 49°09' W 123°02'0 0.0
2015-May-03 15:34N 49°09' W 123°02'1 1.5
2015-May-03 14:34N 49°08' W 123°04'10 9.8
2015-May-03 13:34N 49°06' W 123°19'1111.2
2015-May-03 12:34N 48°55' W 123°18'1111.0
2015-May-03 11:33N 48°44' W 123°23'3 3.2
2015-May-03 10:33N 48°41' W 123°24'1 1.1
2015-May-03 09:33N 48°42' W 123°23'1111.0
2015-May-03 08:33N 48°52' W 123°18'1413.5
2015-May-03 07:33N 49°06' W 123°19'1211.6
2015-May-03 06:33N 49°09' W 123°02'0 0.0
2015-May-03 05:33N 49°09' W 123°02'0 0.1
2015-May-03 04:33N 49°09' W 123°02'0 0.0
2015-May-03 03:33N 49°09' W 123°02'0 0.0
2015-May-03 02:33N 49°09' W 123°02'0 0.0
2015-May-03 01:33N 49°09' W 123°02'0 0.0
2015-May-03 00:33N 49°09' W 123°02'0 0.0
2015-May-02 23:33N 49°09' W 123°02'0 0.0
2015-May-02 22:33N 49°09' W 123°02'0 0.0
2015-May-02 21:33N 49°09' W 123°02'0 0.0
2015-May-02 20:33N 49°09' W 123°02'0 0.0
2015-May-02 19:33N 49°09' W 123°02'0 0.0
2015-May-02 18:33N 49°09' W 123°02'0 0.0
2015-May-02 17:33N 49°09' W 123°02'0 0.0
2015-May-02 16:33N 49°09' W 123°02'0 0.1
2015-May-02 15:33N 49°09' W 123°02'5 5.3
2015-May-02 14:33N 49°07' W 123°10'7 6.7
2015-May-02 13:34N 49°02' W 123°16'1111.3
2015-May-02 12:33N 48°51' W 123°21'10 9.6
2015-May-02 11:34N 48°41' W 123°24'0 0.0
2015-May-02 10:33N 48°41' W 123°24'9 9.5
2015-May-02 09:33N 48°51' W 123°21'1413.5
2015-May-02 08:33N 49°04' W 123°24'1313.5
2015-May-02 07:34N 49°07' W 123°04'2 2.0
2015-May-02 06:33N 49°09' W 123°02'4 4.3
2015-May-02 05:33N 49°06' W 123°08'8 8.3
2015-May-02 04:33N 49°02' W 123°18'1212.2
2015-May-02 03:33N 48°50' W 123°20'9 8.9
2015-May-02 02:33N 48°41' W 123°24'0 0.0
2015-May-02 01:33N 48°41' W 123°24'9 8.8
2015-May-02 00:33N 48°50' W 123°21'1413.7
2015-May-01 23:34N 49°03' W 123°19'1212.1
2015-May-01 22:34N 49°09' W 123°03'0 0.3
2015-May-01 21:34N 49°09' W 123°02'0 0.0
2015-May-01 20:34N 49°09' W 123°02'0 0.0
2015-May-01 19:34N 49°09' W 123°02'0 0.0
2015-May-01 18:34N 49°09' W 123°02'0 0.0
2015-May-01 17:34N 49°09' W 123°02'0 0.0
2015-May-01 16:33N 49°09' W 123°02'0 0.0
2015-May-01 15:34N 49°09' W 123°02'5 4.9
2015-May-01 14:34N 49°06' W 123°09'7 7.4
2015-May-01 13:34N 49°03' W 123°19'1312.6
2015-May-01 12:34N 48°50' W 123°21'9 9.4
2015-May-01 11:33N 48°41' W 123°24'0 0.0
2015-May-01 10:33N 48°41' W 123°24'9 8.8
2015-May-01 09:33N 48°50' W 123°21'1313.5
2015-May-01 08:33N 49°03' W 123°19'1212.3
2015-May-01 07:33N 49°09' W 123°03'0 0.4
2015-May-01 06:34N 49°09' W 123°02'5 4.6
2015-May-01 05:33N 49°07' W 123°08'8 7.9
2015-May-01 04:33N 49°01' W 123°17'1313.4
2015-May-01 03:33N 48°48' W 123°20'7 7.2
2015-May-01 02:33N 48°41' W 123°24'0 0.0
2015-May-01 01:33N 48°41' W 123°24'9 9.0
2015-May-01 00:33N 48°50' W 123°21'1414.4
2015-Apr-30 23:33N 49°04' W 123°20'1212.2
2015-Apr-30 22:34N 49°09' W 123°02'0 0.1
2015-Apr-30 21:33N 49°09' W 123°02'0 0.0
2015-Apr-30 20:33N 49°09' W 123°02'0 0.0
2015-Apr-30 19:33N 49°09' W 123°02'0 0.0
2015-Apr-30 18:33N 49°09' W 123°02'0 0.0
2015-Apr-30 17:33N 49°09' W 123°02'0 0.0
2015-Apr-30 16:33N 49°09' W 123°02'0 0.0
2015-Apr-30 15:33N 49°09' W 123°02'4 3.6
2015-Apr-30 14:33N 49°07' W 123°07'9 8.8
2015-Apr-30 13:33N 49°05' W 123°20'1312.9
2015-Apr-30 12:33N 48°52' W 123°21'1110.5
2015-Apr-30 11:34N 48°41' W 123°24'0 0.0
2015-Apr-30 10:34N 48°41' W 123°24'8 8.3
2015-Apr-30 09:33N 48°49' W 123°21'1212.5
2015-Apr-30 08:33N 49°02' W 123°20'1010.0
2015-Apr-30 07:34N 49°07' W 123°07'4 3.6
2015-Apr-30 06:34N 49°09' W 123°02'4 4.3
2015-Apr-30 05:33N 49°06' W 123°08'8 8.1
2015-Apr-30 04:33N 49°02' W 123°18'1212.5
2015-Apr-30 03:34N 48°49' W 123°20'9 8.4
2015-Apr-30 02:32N 48°41' W 123°24'0 0.0
2015-Apr-30 01:33N 48°41' W 123°24'9 8.8
2015-Apr-30 00:34N 48°50' W 123°21'1414.3
2015-Apr-29 23:33N 49°04' W 123°20'1212.3
2015-Apr-29 22:33N 49°09' W 123°02'0 0.1
2015-Apr-29 21:33N 49°09' W 123°02'0 0.0
2015-Apr-29 20:33N 49°09' W 123°02'0 0.0
2015-Apr-29 19:33N 49°09' W 123°02'0 0.0
2015-Apr-29 18:33N 49°09' W 123°02'0 0.0
2015-Apr-29 17:33N 49°09' W 123°02'0 0.0
2015-Apr-29 16:33N 49°09' W 123°02'0 0.0
2015-Apr-29 15:33N 49°09' W 123°02'5 5.0
2015-Apr-29 14:34N 49°07' W 123°09'8 8.1
2015-Apr-29 13:34N 49°02' W 123°19'1111.2
2015-Apr-29 12:33N 48°51' W 123°21'10 9.6
2015-Apr-29 11:33N 48°41' W 123°24'0 0.0
2015-Apr-29 10:34N 48°41' W 123°24'8 8.0
2015-Apr-29 09:33N 48°49' W 123°21'1212.4
2015-Apr-29 08:33N 49°01' W 123°19'1010.4
2015-Apr-29 07:34N 49°07' W 123°06'3 2.9
2015-Apr-29 06:33N 49°09' W 123°02'4 4.3
2015-Apr-29 05:33N 49°06' W 123°08'8 8.0
2015-Apr-29 04:33N 49°02' W 123°18'1313.1
2015-Apr-29 03:33N 48°49' W 123°20'8 7.1
2015-Apr-29 02:25N 48°41' W 123°24'0 0.0
2015-Apr-29 01:33N 48°41' W 123°24'9 8.7
2015-Apr-29 00:33N 48°50' W 123°21'1312.7
2015-Apr-28 23:34N 49°02' W 123°19'1211.9
2015-Apr-28 22:34N 49°08' W 123°04'1 1.0
2015-Apr-28 21:33N 49°09' W 123°02'0 0.0
2015-Apr-28 20:33N 49°09' W 123°02'0 0.0
2015-Apr-28 19:33N 49°09' W 123°02'0 0.0
2015-Apr-28 18:33N 49°09' W 123°02'0 0.0
2015-Apr-28 17:33N 49°09' W 123°02'0 0.0
2015-Apr-28 16:33N 49°09' W 123°02'0 0.0
2015-Apr-28 15:33N 49°09' W 123°02'6 6.0
2015-Apr-28 14:33N 49°07' W 123°11'7 7.2
2015-Apr-28 13:34N 49°01' W 123°17'1111.2
2015-Apr-28 12:33N 48°50' W 123°21'9 9.0
2015-Apr-28 11:33N 48°41' W 123°24'0 0.0
2015-Apr-28 10:33N 48°41' W 123°24'8 7.9
2015-Apr-28 09:33N 48°49' W 123°21'1313.0
2015-Apr-28 08:34N 49°02' W 123°19'1010.1
2015-Apr-28 07:33N 49°07' W 123°05'3 2.8
2015-Apr-28 06:33N 49°09' W 123°02'4 3.9
2015-Apr-28 05:33N 49°07' W 123°07'9 8.8
2015-Apr-28 04:34N 49°01' W 123°17'1414.0
2015-Apr-28 03:33N 48°47' W 123°21'6 6.2
2015-Apr-28 02:33N 48°41' W 123°24'0 0.0
2015-Apr-28 01:33N 48°41' W 123°24'9 9.1
2015-Apr-28 00:33N 48°50' W 123°21'1212.2
2015-Apr-27 23:34N 49°02' W 123°19'1211.6
2015-Apr-27 22:33N 49°08' W 123°04'1 1.2
2015-Apr-27 21:33N 49°09' W 123°02'0 0.1
2015-Apr-27 20:33N 49°09' W 123°02'0 0.0
2015-Apr-27 19:33N 49°09' W 123°02'0 0.0
2015-Apr-27 18:33N 49°09' W 123°02'0 0.0
2015-Apr-27 17:33N 49°09' W 123°02'0 0.0
2015-Apr-27 16:33N 49°09' W 123°02'0 0.0
2015-Apr-27 15:33N 49°09' W 123°02'0 0.0
2015-Apr-27 14:33N 49°09' W 123°02'0 0.0
2015-Apr-27 13:33N 49°09' W 123°02'0 0.0
2015-Apr-27 12:33N 49°09' W 123°02'0 0.0
2015-Apr-27 11:33N 49°09' W 123°02'0 0.0
2015-Apr-27 10:33N 49°09' W 123°02'0 0.0
2015-Apr-27 09:33N 49°09' W 123°02'0 0.0
2015-Apr-27 08:33N 49°09' W 123°02'0 0.0
2015-Apr-27 07:33N 49°09' W 123°02'0 0.0
2015-Apr-27 06:33N 49°09' W 123°02'0 0.0
2015-Apr-27 05:33N 49°09' W 123°02'0 0.0
2015-Apr-27 04:33N 49°09' W 123°02'0 0.0
2015-Apr-27 03:33N 49°09' W 123°02'0 0.0
2015-Apr-27 02:33N 49°09' W 123°02'0 0.0
2015-Apr-27 01:33N 49°09' W 123°02'0 0.0
2015-Apr-27 00:33N 49°09' W 123°02'0 0.0
2015-Apr-26 23:33N 49°09' W 123°02'0 0.0
2015-Apr-26 22:33N 49°09' W 123°02'0 0.0
2015-Apr-26 21:33N 49°09' W 123°02'0 0.0
2015-Apr-26 20:33N 49°09' W 123°02'0 0.0
2015-Apr-26 19:33N 49°09' W 123°02'0 0.0
2015-Apr-26 18:33N 49°09' W 123°02'0 0.0
2015-Apr-26 17:33N 49°09' W 123°02'0 0.0
2015-Apr-26 16:33N 49°09' W 123°02'0 0.0
2015-Apr-26 15:33N 49°09' W 123°02'3 2.8
2015-Apr-26 14:33N 49°07' W 123°05'1010.0
2015-Apr-26 13:33N 49°03' W 123°20'1211.7
2015-Apr-26 12:33N 48°52' W 123°20'1010.5
2015-Apr-26 11:34N 48°41' W 123°24'0 0.2
2015-Apr-26 10:33N 48°41' W 123°24'2 1.9
2015-Apr-26 09:33N 48°42' W 123°22'1111.1
2015-Apr-26 08:34N 48°53' W 123°18'1313.3
2015-Apr-26 07:33N 49°06' W 123°19'1111.1
2015-Apr-26 06:33N 49°09' W 123°02'0 0.1
2015-Apr-26 05:33N 49°09' W 123°02'0 0.0
2015-Apr-26 04:33N 49°09' W 123°02'0 0.0
2015-Apr-26 03:33N 49°09' W 123°02'0 0.0
2015-Apr-26 02:33N 49°09' W 123°02'0 0.0
2015-Apr-26 01:33N 49°09' W 123°02'0 0.0
2015-Apr-26 00:33N 49°09' W 123°02'0 0.0
2015-Apr-25 23:33N 49°09' W 123°02'0 0.0
2015-Apr-25 22:33N 49°09' W 123°02'0 0.0
2015-Apr-25 21:33N 49°09' W 123°02'0 0.0
2015-Apr-25 20:33N 49°09' W 123°02'0 0.0
2015-Apr-25 19:33N 49°09' W 123°02'0 0.0
2015-Apr-25 18:33N 49°09' W 123°02'0 0.0
2015-Apr-25 17:33N 49°09' W 123°02'0 0.0
2015-Apr-25 16:33N 49°09' W 123°02'0 0.0
2015-Apr-25 15:33N 49°09' W 123°02'6 6.0
2015-Apr-25 14:33N 49°07' W 123°11'8 8.4
2015-Apr-25 13:33N 49°01' W 123°19'1110.7
2015-Apr-25 12:33N 48°50' W 123°20'9 9.0
2015-Apr-25 11:33N 48°41' W 123°24'0 0.0
2015-Apr-25 10:33N 48°41' W 123°24'9 8.5
2015-Apr-25 09:33N 48°49' W 123°21'1313.3
2015-Apr-25 08:34N 49°03' W 123°22'1312.7
2015-Apr-25 07:33N 49°08' W 123°04'2 1.6
2015-Apr-25 06:33N 49°09' W 123°02'3 3.1
2015-Apr-25 05:33N 49°07' W 123°06'10 9.7
2015-Apr-25 04:33N 49°01' W 123°18'  

Dump ship's entire track history